createdAt,value
2022-11-07T00:00:25.978Z,5.13
2022-11-07T00:02:52.555Z,5.57
2022-11-07T00:05:19.131Z,5.10
2022-11-07T00:07:45.675Z,5.05
2022-11-07T00:10:12.194Z,4.88
2022-11-07T00:12:38.697Z,4.88
2022-11-07T00:15:06.227Z,5.03
2022-11-07T00:17:32.736Z,5.20
2022-11-07T00:19:59.273Z,4.40
2022-11-07T00:22:25.887Z,4.70
2022-11-07T00:24:52.492Z,4.32
2022-11-07T00:27:19.064Z,5.60
2022-11-07T00:29:45.990Z,4.60
2022-11-07T00:32:12.503Z,5.28
2022-11-07T00:34:38.976Z,5.10
2022-11-07T00:37:05.717Z,5.13
2022-11-07T00:39:32.240Z,4.72
2022-11-07T00:41:58.771Z,4.97
2022-11-07T00:44:25.264Z,5.25
2022-11-07T00:46:51.810Z,5.18
2022-11-07T00:49:18.307Z,4.88
2022-11-07T00:51:44.811Z,4.65
2022-11-07T00:54:11.338Z,5.03
2022-11-07T00:56:38.044Z,4.70
2022-11-07T00:59:04.566Z,5.32
2022-11-07T01:01:32.852Z,5.32
2022-11-07T01:04:18.066Z,5.60
2022-11-07T01:06:45.200Z,4.30
2022-11-07T01:09:14.936Z,4.43
2022-11-07T01:11:41.617Z,4.72
2022-11-07T01:14:08.412Z,4.50
2022-11-07T01:16:36.183Z,4.40
2022-11-07T01:19:03.619Z,4.80
2022-11-07T01:21:30.450Z,4.63
2022-11-07T01:23:57.330Z,4.25
2022-11-07T01:26:24.284Z,4.40
2022-11-07T01:28:50.808Z,4.40
2022-11-07T01:31:18.124Z,4.00
2022-11-07T01:33:45.021Z,4.50
2022-11-07T01:36:14.260Z,5.25
2022-11-07T01:38:43.268Z,4.63
2022-11-07T01:41:26.865Z,4.55
2022-11-07T01:43:56.100Z,4.00
2022-11-07T01:46:29.961Z,4.20
2022-11-07T01:49:07.274Z,4.28
2022-11-07T01:51:37.970Z,5.10
2022-11-07T01:54:05.431Z,4.85
2022-11-07T01:56:34.453Z,4.15
2022-11-07T01:59:01.108Z,4.43
2022-11-07T02:01:27.898Z,4.30
2022-11-07T02:03:54.891Z,4.30
2022-11-07T02:06:26.918Z,4.40
2022-11-07T02:08:53.703Z,3.90
2022-11-07T02:11:20.532Z,3.78
2022-11-07T02:13:47.163Z,3.88
2022-11-07T02:16:13.687Z,3.97
2022-11-07T02:18:42.353Z,3.88
2022-11-07T02:21:26.742Z,3.70
2022-11-07T02:24:08.304Z,4.20
2022-11-07T02:26:38.350Z,4.03
2022-11-07T02:29:07.256Z,4.03
2022-11-07T02:31:33.827Z,3.55
2022-11-07T02:34:00.344Z,3.65
2022-11-07T02:36:27.000Z,4.03
2022-11-07T02:38:58.824Z,4.35
2022-11-07T02:41:28.249Z,4.05
2022-11-07T02:43:58.800Z,3.80
2022-11-07T02:46:27.431Z,4.20
2022-11-07T02:48:56.932Z,4.38
2022-11-07T02:51:23.550Z,4.00
2022-11-07T02:53:50.515Z,3.92
2022-11-07T02:56:17.607Z,4.10
2022-11-07T02:58:44.226Z,4.32
2022-11-07T03:01:12.305Z,4.32
2022-11-07T03:03:45.042Z,4.75
2022-11-07T03:06:14.126Z,4.75
2022-11-07T03:08:40.693Z,5.65
2022-11-07T03:11:07.650Z,4.65
2022-11-07T03:13:34.236Z,4.50
2022-11-07T03:16:07.817Z,4.50
2022-11-07T03:18:35.004Z,4.72
2022-11-07T03:21:01.923Z,4.20
2022-11-07T03:23:28.452Z,5.20
2022-11-07T03:25:55.020Z,4.40
2022-11-07T03:28:21.613Z,4.30
2022-11-07T03:30:48.124Z,5.80
2022-11-07T03:33:14.967Z,4.82
2022-11-07T03:35:42.524Z,4.60
2022-11-07T03:38:09.625Z,4.93
2022-11-07T03:40:36.287Z,4.70
2022-11-07T03:43:02.834Z,4.43
2022-11-07T03:45:29.329Z,5.15
2022-11-07T03:47:55.969Z,4.15
2022-11-07T03:50:22.585Z,4.88
2022-11-07T03:52:49.281Z,5.20
2022-11-07T03:55:18.649Z,4.45
2022-11-07T03:57:45.518Z,4.97
2022-11-07T04:00:14.888Z,4.93
2022-11-07T04:02:42.667Z,4.10
2022-11-07T04:05:09.632Z,4.05
2022-11-07T04:07:36.248Z,4.47
2022-11-07T04:10:03.259Z,4.18
2022-11-07T04:12:48.508Z,4.03
2022-11-07T04:15:33.784Z,4.47
2022-11-07T04:18:00.628Z,4.40
2022-11-07T04:20:28.297Z,4.00
2022-11-07T04:22:54.807Z,5.10
2022-11-07T04:25:41.285Z,4.30
2022-11-07T04:28:07.795Z,4.15
2022-11-07T04:30:34.375Z,3.53
2022-11-07T04:33:02.345Z,5.00
2022-11-07T04:35:31.182Z,4.53
2022-11-07T04:37:58.277Z,4.15
2022-11-07T04:40:25.386Z,3.80
2022-11-07T04:42:51.952Z,4.10
2022-11-07T04:45:18.516Z,4.28
2022-11-07T04:47:45.322Z,4.50
2022-11-07T04:50:15.866Z,4.70
2022-11-07T04:52:42.705Z,4.55
2022-11-07T04:55:10.511Z,4.65
2022-11-07T04:57:37.023Z,4.82
2022-11-07T05:00:04.636Z,4.57
2022-11-07T05:02:31.245Z,4.78
2022-11-07T05:04:57.754Z,5.22
2022-11-07T05:07:24.286Z,5.05
2022-11-07T05:09:50.942Z,4.75
2022-11-07T05:12:17.447Z,5.38
2022-11-07T05:14:43.952Z,5.80
2022-11-07T05:17:14.636Z,5.28
2022-11-07T05:19:43.227Z,4.97
2022-11-07T05:22:29.304Z,5.43
2022-11-07T05:24:55.882Z,5.32
2022-11-07T05:27:22.760Z,4.82
2022-11-07T05:29:49.304Z,5.35
2022-11-07T05:32:15.800Z,5.00
2022-11-07T05:34:42.336Z,5.28
2022-11-07T05:37:09.884Z,5.50
2022-11-07T05:39:37.008Z,5.00
2022-11-07T05:42:03.922Z,4.90
2022-11-07T05:44:31.124Z,5.00
2022-11-07T05:46:58.042Z,5.10
2022-11-07T05:49:25.169Z,5.10
2022-11-07T05:51:51.852Z,4.78
2022-11-07T05:54:18.530Z,4.88
2022-11-07T05:56:45.233Z,4.47
2022-11-07T05:59:12.360Z,4.95
2022-11-07T06:01:39.066Z,4.90
2022-11-07T06:04:06.570Z,5.45
2022-11-07T06:06:33.190Z,4.95
2022-11-07T06:08:59.727Z,5.15
2022-11-07T06:11:26.261Z,4.65
2022-11-07T06:13:53.301Z,5.22
2022-11-07T06:16:19.834Z,4.97
2022-11-07T06:18:46.382Z,5.57
2022-11-07T06:21:13.934Z,5.20
2022-11-07T06:23:40.540Z,5.53
2022-11-07T06:26:07.101Z,5.85
2022-11-07T06:28:33.667Z,6.82
2022-11-07T06:31:01.413Z,6.53
2022-11-07T06:33:29.800Z,6.75
2022-11-07T06:36:03.845Z,6.57
2022-11-07T06:38:30.440Z,6.65
2022-11-07T06:41:04.142Z,7.13
2022-11-07T06:46:06.135Z,7.13
2022-11-07T06:48:33.140Z,7.10
2022-11-07T06:51:00.627Z,6.75
2022-11-07T06:53:27.469Z,8.25
2022-11-07T06:55:55.063Z,6.97
2022-11-07T06:58:22.109Z,6.57
2022-11-07T07:00:49.028Z,7.40
2022-11-07T07:03:15.745Z,6.43
2022-11-07T07:05:42.647Z,6.32
2022-11-07T07:08:10.592Z,6.47
2022-11-07T07:10:40.423Z,5.28
2022-11-07T07:13:06.950Z,6.55
2022-11-07T07:15:47.839Z,6.50
2022-11-07T07:18:17.217Z,5.85
2022-11-07T07:20:43.850Z,5.38
2022-11-07T07:23:10.355Z,6.07
2022-11-07T07:25:36.848Z,5.38
2022-11-07T07:28:03.427Z,5.47
2022-11-07T07:30:30.028Z,5.45
2022-11-07T07:32:56.560Z,5.78
2022-11-07T07:35:23.085Z,4.97
2022-11-07T07:37:51.004Z,5.38
2022-11-07T07:40:18.228Z,4.70
2022-11-07T07:42:44.831Z,4.78
2022-11-07T07:45:13.039Z,5.30
2022-11-07T07:47:40.125Z,5.80
2022-11-07T07:50:09.119Z,5.65
2022-11-07T07:52:35.784Z,4.82
2022-11-07T07:55:02.289Z,5.43
2022-11-07T07:57:28.850Z,4.32
2022-11-07T07:59:55.344Z,4.75
2022-11-07T08:02:21.920Z,4.85
2022-11-07T08:04:48.431Z,4.10
2022-11-07T08:07:15.015Z,4.50
2022-11-07T08:09:41.585Z,4.85
2022-11-07T08:12:11.400Z,4.40
2022-11-07T08:14:37.990Z,4.55
2022-11-07T08:17:04.668Z,4.03
2022-11-07T08:19:31.251Z,4.13
2022-11-07T08:21:57.853Z,4.22
2022-11-07T08:24:24.375Z,4.43
2022-11-07T08:26:50.937Z,4.68
2022-11-07T08:29:17.543Z,4.65
2022-11-07T08:31:44.078Z,4.10
2022-11-07T08:34:10.714Z,4.20
2022-11-07T08:36:37.777Z,4.32
2022-11-07T08:39:04.292Z,4.75
2022-11-07T08:41:30.875Z,4.68
2022-11-07T08:43:57.368Z,4.70
2022-11-07T08:46:23.977Z,4.20
2022-11-07T08:48:50.839Z,3.83
2022-11-07T08:51:17.801Z,4.40
2022-11-07T08:53:44.332Z,4.50
2022-11-07T08:56:10.913Z,4.20
2022-11-07T08:58:38.034Z,4.38
2022-11-07T09:01:09.085Z,4.07
2022-11-07T09:03:47.476Z,3.85
2022-11-07T09:06:16.263Z,3.55
2022-11-07T09:08:42.842Z,3.42
2022-11-07T09:11:09.636Z,4.63
2022-11-07T09:13:36.814Z,3.88
2022-11-07T09:16:05.032Z,3.92
2022-11-07T09:18:32.335Z,3.78
2022-11-07T09:20:59.348Z,4.13
2022-11-07T09:23:26.041Z,3.67
2022-11-07T09:25:52.568Z,4.65
2022-11-07T09:28:19.096Z,3.58
2022-11-07T09:30:45.655Z,4.25
2022-11-07T09:33:12.363Z,3.53
2022-11-07T09:35:39.061Z,3.92
2022-11-07T09:38:05.624Z,3.95
2022-11-07T09:40:43.830Z,3.58
2022-11-07T09:43:21.151Z,5.28
2022-11-07T09:46:09.676Z,4.05
2022-11-07T09:48:49.411Z,3.78
2022-11-07T09:51:26.700Z,4.22
2022-11-07T09:53:58.256Z,4.13
2022-11-07T09:56:31.836Z,4.10
2022-11-07T09:59:02.445Z,3.72
2022-11-07T10:01:31.405Z,4.18
2022-11-07T10:04:23.417Z,5.35
2022-11-07T10:06:49.641Z,4.97
2022-11-07T10:09:31.987Z,4.25
2022-11-07T10:12:16.122Z,4.50
2022-11-07T10:14:48.377Z,6.63
2022-11-07T10:17:41.795Z,5.22
2022-11-07T10:20:31.563Z,5.18
2022-11-07T10:23:22.949Z,4.72
2022-11-07T10:26:04.885Z,4.75
2022-11-07T10:28:32.080Z,4.80
2022-11-07T10:31:00.814Z,5.05
2022-11-07T10:33:49.836Z,4.28
2022-11-07T10:36:30.552Z,4.30
2022-11-07T10:38:57.563Z,3.90
2022-11-07T10:41:29.327Z,3.75
2022-11-07T10:44:10.507Z,3.80
2022-11-07T10:46:40.986Z,4.40
2022-11-07T10:49:33.772Z,3.97
2022-11-07T10:52:08.778Z,4.07
2022-11-07T10:54:35.418Z,3.50
2022-11-07T10:57:11.417Z,3.63
2022-11-07T10:59:53.832Z,3.40
2022-11-07T11:02:24.573Z,3.95
2022-11-07T11:04:57.232Z,3.83
2022-11-07T11:07:41.934Z,4.18
2022-11-07T11:10:38.807Z,4.22
2022-11-07T11:13:06.653Z,3.40
2022-11-07T11:15:43.576Z,3.45
2022-11-07T11:18:16.351Z,3.40
2022-11-07T11:21:03.325Z,4.00
2022-11-07T11:23:31.828Z,3.70
2022-11-07T11:26:01.082Z,3.17
2022-11-07T11:28:34.315Z,3.67
2022-11-07T11:31:12.537Z,4.13
2022-11-07T11:33:43.303Z,4.78
2022-11-07T11:36:14.348Z,4.00
2022-11-07T11:38:42.605Z,4.18
2022-11-07T11:41:22.676Z,3.85
2022-11-07T11:43:54.532Z,3.88
2022-11-07T11:46:33.676Z,3.70
2022-11-07T11:49:06.270Z,3.28
2022-11-07T11:51:42.917Z,3.42
2022-11-07T11:54:11.140Z,4.68
2022-11-07T11:56:37.990Z,3.75
2022-11-07T11:59:20.092Z,3.45
2022-11-07T12:01:58.812Z,4.10
2022-11-07T12:04:42.914Z,4.05
2022-11-07T12:10:01.224Z,3.50
2022-11-07T12:12:47.596Z,4.13
2022-11-07T12:15:29.318Z,3.72
2022-11-07T12:18:03.389Z,3.63
2022-11-07T12:20:47.957Z,4.22
2022-11-07T12:23:20.400Z,3.30
2022-11-07T12:26:04.505Z,3.20
2022-11-07T12:28:58.825Z,3.40
2022-11-07T12:31:39.164Z,4.78
2022-11-07T12:34:13.028Z,3.20
2022-11-07T12:36:50.686Z,3.83
2022-11-07T12:39:17.130Z,3.92
2022-11-07T12:42:03.047Z,3.40
2022-11-07T12:44:45.442Z,3.92
2022-11-07T12:48:02.179Z,3.10
2022-11-07T12:50:38.133Z,3.22
2022-11-07T12:53:10.640Z,3.40
2022-11-07T12:55:41.401Z,4.28
2022-11-07T12:58:19.195Z,3.35
2022-11-07T13:00:46.281Z,3.30
2022-11-07T13:03:21.158Z,3.85
2022-11-07T13:06:02.644Z,4.22
2022-11-07T13:08:46.666Z,4.20
2022-11-07T13:14:04.037Z,4.38
2022-11-07T13:16:34.020Z,4.68
2022-11-07T13:19:29.389Z,4.13
2022-11-07T13:22:04.724Z,3.88
2022-11-07T13:24:32.368Z,3.70
2022-11-07T13:26:59.759Z,4.45
2022-11-07T13:29:37.916Z,4.57
2022-11-07T13:32:05.944Z,4.80
2022-11-07T13:34:59.090Z,4.00
2022-11-07T13:37:28.570Z,4.22
2022-11-07T13:40:00.828Z,4.03
2022-11-07T13:42:30.266Z,4.45
2022-11-07T13:44:58.176Z,4.38
2022-11-07T13:47:30.719Z,4.10
2022-11-07T13:50:03.186Z,4.72
2022-11-07T13:52:37.668Z,5.53
2022-11-07T13:55:16.261Z,4.50
2022-11-07T13:58:03.363Z,4.55
2022-11-07T14:00:31.951Z,4.70
2022-11-07T14:02:59.318Z,4.57
2022-11-07T14:05:34.787Z,4.32
2022-11-07T14:08:04.812Z,4.50
2022-11-07T14:10:38.896Z,4.80
2022-11-07T14:13:09.192Z,4.85
2022-11-07T14:15:36.948Z,5.05
2022-11-07T14:18:04.490Z,4.68
2022-11-07T14:20:31.043Z,4.07
2022-11-07T14:23:00.625Z,4.45
2022-11-07T14:25:35.555Z,4.82
2022-11-07T14:28:02.436Z,4.25
2022-11-07T14:30:30.567Z,4.70
2022-11-07T14:32:59.915Z,4.97
2022-11-07T14:35:34.328Z,4.75
2022-11-07T14:38:20.067Z,5.32
2022-11-07T14:40:47.253Z,4.75
2022-11-07T14:43:16.146Z,4.25
2022-11-07T14:48:30.456Z,4.75
2022-11-07T14:50:58.442Z,5.07
2022-11-07T14:53:28.969Z,4.55
2022-11-07T14:55:59.161Z,4.32
2022-11-07T14:58:28.078Z,5.25
2022-11-07T15:00:57.559Z,4.45
2022-11-07T15:03:31.572Z,4.10
2022-11-07T15:05:58.537Z,5.13
2022-11-07T15:08:30.811Z,4.22
2022-11-07T15:11:22.428Z,3.97
2022-11-07T15:13:48.969Z,3.88
2022-11-07T15:16:20.737Z,4.57
2022-11-07T15:18:49.455Z,3.72
2022-11-07T15:21:29.751Z,4.15
2022-11-07T15:23:56.997Z,3.95
2022-11-07T15:26:28.035Z,3.65
2022-11-07T15:28:54.697Z,4.10
2022-11-07T15:31:27.894Z,4.43
2022-11-07T15:33:56.859Z,3.90
2022-11-07T15:36:23.739Z,3.65
2022-11-07T15:38:51.501Z,3.95
2022-11-07T15:41:18.749Z,4.20
2022-11-07T15:43:45.464Z,3.50
2022-11-07T15:46:27.779Z,3.17
2022-11-07T15:48:54.396Z,4.30
2022-11-07T15:51:20.967Z,3.67
2022-11-07T15:53:47.609Z,3.55
2022-11-07T15:56:15.472Z,3.22
2022-11-07T15:58:42.308Z,3.92
2022-11-07T16:01:09.342Z,3.28
2022-11-07T16:03:35.961Z,3.58
2022-11-07T16:06:02.949Z,3.58
2022-11-07T16:08:30.076Z,3.47
2022-11-07T16:11:01.089Z,4.03
2022-11-07T16:13:28.684Z,3.80
2022-11-07T16:16:00.205Z,3.22
2022-11-07T16:18:27.255Z,3.80
2022-11-07T16:20:53.903Z,3.88
2022-11-07T16:23:20.387Z,4.47
2022-11-07T16:25:49.447Z,4.05
2022-11-07T16:28:32.150Z,3.97
2022-11-07T16:30:59.209Z,4.35
2022-11-07T16:33:26.556Z,4.18
2022-11-07T16:35:55.138Z,4.10
2022-11-07T16:38:23.446Z,4.53
2022-11-07T16:40:50.250Z,4.65
2022-11-07T16:43:16.797Z,4.50
2022-11-07T16:45:54.557Z,4.93
2022-11-07T16:48:29.517Z,3.88
2022-11-07T16:50:56.768Z,3.60
2022-11-07T16:53:24.430Z,3.72
2022-11-07T16:55:54.162Z,4.40
2022-11-07T16:58:30.723Z,3.90
2022-11-07T17:00:59.992Z,3.92
2022-11-07T17:03:26.539Z,3.75
2022-11-07T17:05:58.188Z,3.97
2022-11-07T17:08:28.592Z,4.07
2022-11-07T17:10:55.164Z,3.67
2022-11-07T17:13:23.002Z,4.25
2022-11-07T17:15:49.909Z,4.43
2022-11-07T17:18:18.852Z,4.78
2022-11-07T17:20:52.995Z,4.00
2022-11-07T17:23:29.526Z,4.20
2022-11-07T17:25:59.586Z,5.05
2022-11-07T17:28:26.124Z,5.75
2022-11-07T17:30:52.677Z,3.92
2022-11-07T17:33:19.194Z,4.03
2022-11-07T17:35:54.889Z,3.55
2022-11-07T17:38:21.392Z,4.65
2022-11-07T17:40:47.946Z,4.25
2022-11-07T17:43:14.491Z,4.47
2022-11-07T17:45:41.060Z,4.43
2022-11-07T17:48:09.158Z,5.28
2022-11-07T17:50:35.677Z,5.00
2022-11-07T17:53:02.250Z,5.32
2022-11-07T17:55:28.806Z,4.45
2022-11-07T17:57:55.373Z,4.85
2022-11-07T18:00:23.931Z,5.63
2022-11-07T18:02:52.308Z,4.88
2022-11-07T18:05:20.406Z,4.47
2022-11-07T18:07:47.009Z,5.03
2022-11-07T18:10:17.962Z,4.70
2022-11-07T18:12:44.567Z,5.05
2022-11-07T18:15:14.140Z,5.43
2022-11-07T18:17:41.216Z,4.80
2022-11-07T18:20:09.221Z,4.55
2022-11-07T18:22:37.108Z,4.95
2022-11-07T18:25:05.748Z,5.43
2022-11-07T18:27:32.324Z,5.30
2022-11-07T18:29:58.868Z,5.20
2022-11-07T18:32:25.356Z,5.50
2022-11-07T18:34:51.869Z,5.22
2022-11-07T18:37:18.791Z,4.90
2022-11-07T18:39:45.364Z,4.45
2022-11-07T18:42:11.901Z,4.75
2022-11-07T18:44:38.518Z,4.97
2022-11-07T18:47:05.069Z,4.53
2022-11-07T18:49:31.762Z,4.35
2022-11-07T18:51:58.254Z,4.03
2022-11-07T18:54:26.195Z,5.03
2022-11-07T18:56:52.816Z,4.90
2022-11-07T18:59:19.396Z,5.13
2022-11-07T19:01:46.184Z,4.25
2022-11-07T19:04:12.893Z,4.15
2022-11-07T19:06:55.700Z,4.63
2022-11-07T19:09:30.673Z,4.40
2022-11-07T19:11:58.514Z,3.78
2022-11-07T19:14:26.028Z,4.57
2022-11-07T19:16:52.784Z,4.47
2022-11-07T19:19:19.353Z,3.72
2022-11-07T19:21:45.845Z,4.13
2022-11-07T19:24:13.108Z,3.80
2022-11-07T19:26:39.677Z,3.30
2022-11-07T19:29:06.858Z,4.05
2022-11-07T19:31:34.884Z,3.90
2022-11-07T19:34:01.638Z,3.60
2022-11-07T19:36:28.214Z,3.92
2022-11-07T19:38:54.748Z,3.85
2022-11-07T19:41:21.286Z,4.75
2022-11-07T19:43:51.161Z,4.25
2022-11-07T19:46:20.431Z,4.15
2022-11-07T19:48:47.915Z,3.47
2022-11-07T19:51:21.258Z,3.00
2022-11-07T19:53:59.657Z,3.83
2022-11-07T19:56:28.793Z,3.00
2022-11-07T19:58:55.684Z,3.78
2022-11-07T20:01:25.661Z,3.85
2022-11-07T20:03:52.638Z,3.80
2022-11-07T20:06:22.899Z,3.03
2022-11-07T20:08:50.078Z,3.70
2022-11-07T20:11:19.227Z,3.75
2022-11-07T20:13:45.780Z,3.50
2022-11-07T20:16:12.624Z,3.33
2022-11-07T20:18:40.322Z,2.75
2022-11-07T20:21:10.371Z,3.13
2022-11-07T20:23:36.899Z,3.35
2022-11-07T20:26:09.083Z,3.58
2022-11-07T20:28:36.321Z,3.10
2022-11-07T20:31:13.472Z,3.15
2022-11-07T20:33:40.156Z,3.53
2022-11-07T20:36:09.272Z,3.05
2022-11-07T20:38:36.563Z,3.08
2022-11-07T20:41:04.228Z,3.50
2022-11-07T20:43:31.364Z,3.10
2022-11-07T20:46:06.164Z,3.00
2022-11-07T20:48:32.953Z,3.00
2022-11-07T20:51:09.682Z,3.30
2022-11-07T20:53:37.632Z,3.30
2022-11-07T20:56:05.346Z,3.08
2022-11-07T20:58:33.192Z,3.08
2022-11-07T21:00:59.993Z,3.20
2022-11-07T21:03:26.702Z,3.00
2022-11-07T21:05:53.524Z,3.13
2022-11-07T21:08:20.112Z,3.75
2022-11-07T21:10:48.869Z,3.40
2022-11-07T21:13:16.470Z,3.20
2022-11-07T21:15:43.827Z,3.22
2022-11-07T21:18:11.622Z,2.95
2022-11-07T21:20:39.127Z,3.25
2022-11-07T21:23:07.276Z,3.30
2022-11-07T21:25:34.859Z,3.03
2022-11-07T21:28:01.384Z,2.92
2022-11-07T21:30:28.331Z,3.30
2022-11-07T21:32:54.869Z,2.60
2022-11-07T21:35:22.831Z,3.05
2022-11-07T21:37:50.313Z,3.22
2022-11-07T21:40:16.871Z,3.22
2022-11-07T21:42:43.403Z,3.10
2022-11-07T21:45:10.494Z,4.20
2022-11-07T21:47:38.827Z,3.67
2022-11-07T21:50:30.842Z,3.50
2022-11-07T21:52:56.753Z,3.70
2022-11-07T21:55:23.392Z,3.55
2022-11-07T21:57:49.930Z,3.38
2022-11-07T22:00:16.743Z,4.13
2022-11-07T22:02:43.244Z,3.17
2022-11-07T22:05:09.927Z,3.33
2022-11-07T22:07:36.645Z,3.28
2022-11-07T22:10:04.827Z,3.70
2022-11-07T22:12:31.540Z,3.25
2022-11-07T22:14:58.056Z,3.70
2022-11-07T22:17:26.822Z,3.53
2022-11-07T22:19:53.845Z,3.45
2022-11-07T22:22:21.144Z,3.60
2022-11-07T22:24:47.701Z,2.78
2022-11-07T22:27:14.208Z,3.20
2022-11-07T22:29:40.705Z,2.90
2022-11-07T22:32:07.296Z,3.47
2022-11-07T22:34:33.876Z,4.25
2022-11-07T22:37:00.372Z,3.15
2022-11-07T22:39:26.871Z,3.50
2022-11-07T22:41:53.434Z,3.30
2022-11-07T22:44:19.936Z,3.05
2022-11-07T22:46:46.457Z,4.35
2022-11-07T22:49:12.960Z,3.72
2022-11-07T22:51:39.512Z,2.88
2022-11-07T22:54:07.938Z,3.50
2022-11-07T22:56:36.075Z,2.97
2022-11-07T22:59:03.759Z,2.83
2022-11-07T23:01:33.510Z,2.90
2022-11-07T23:04:00.623Z,3.65
2022-11-07T23:06:28.607Z,3.28
2022-11-07T23:08:58.968Z,2.83
2022-11-07T23:11:48.340Z,3.50
2022-11-07T23:14:17.936Z,3.25
2022-11-07T23:16:47.739Z,3.47
2022-11-07T23:19:15.555Z,4.22
2022-11-07T23:21:42.733Z,3.47
2022-11-07T23:24:10.047Z,2.70
2022-11-07T23:26:36.616Z,3.42
2022-11-07T23:29:10.769Z,3.30
2022-11-07T23:31:39.272Z,2.70
2022-11-07T23:34:05.794Z,3.45
2022-11-07T23:36:32.241Z,2.95
2022-11-07T23:39:06.520Z,3.40
2022-11-07T23:41:33.356Z,3.20
2022-11-07T23:43:59.913Z,2.95
2022-11-07T23:46:44.790Z,2.92
2022-11-07T23:49:29.961Z,2.53
2022-11-07T23:51:56.535Z,2.70
2022-11-07T23:54:41.687Z,2.75
2022-11-07T23:57:08.168Z,3.67
2022-11-07T23:59:54.349Z,3.08
